Time;durP1;ratioP1;P1;durP2;ratioP2;P2;SDS_P1;SDS_P2;PMS_P1;PMS_P2;Temp;Humidity;BMP_temperature;BMP_pressure;BME280_temperature;BME280_humidity;BME280_pressure;Samples;Min_cycle;Max_cycle;Signal;HPM_P1;HPM_P2
2021/12/27 00:00:31;;;;;;;2.95;1.70;;;;;;;;;;5032927;28;20104;-90
2021/12/27 00:02:59;;;;;;;2.70;1.70;;;;;;;;;;5033555;28;20075;-90
2021/12/27 00:05:24;;;;;;;2.08;1.42;;;;;;;;;;5044327;28;20489;-90
2021/12/27 00:07:51;;;;;;;2.47;1.40;;;;;;;;;;5050083;28;20017;-90
2021/12/27 00:10:17;;;;;;;2.05;1.20;;;;;;;;;;5034340;28;20061;-90
2021/12/27 00:12:42;;;;;;;2.22;1.23;;;;;;;;;;5033973;28;20018;-90
2021/12/27 00:15:08;;;;;;;2.15;1.40;;;;;;;;;;5033573;28;20032;-90
2021/12/27 00:17:33;;;;;;;2.72;1.30;;;;;;;;;;5032217;28;20037;-90
2021/12/27 00:19:58;;;;;;;2.25;1.45;;;;;;;;;;5032955;28;20401;-90
2021/12/27 00:22:23;;;;;;;1.75;1.30;;;;;;;;;;5034613;28;20103;-90
2021/12/27 00:24:49;;;;;;;2.58;1.27;;;;;;;;;;5034151;28;20041;-90
2021/12/27 00:27:15;;;;;;;2.83;1.48;;;;;;;;;;5031771;28;20026;-90
2021/12/27 00:29:40;;;;;;;1.88;1.50;;;;;;;;;;5032990;28;20037;-90
2021/12/27 00:32:05;;;;;;;2.70;1.40;;;;;;;;;;5032220;28;20462;-90
2021/12/27 00:34:31;;;;;;;3.47;1.75;;;;;;;;;;5036031;28;20037;-89
2021/12/27 00:36:56;;;;;;;3.03;1.65;;;;;;;;;;5037208;28;20025;-90
2021/12/27 00:39:21;;;;;;;2.75;1.30;;;;;;;;;;5032617;28;20021;-90
2021/12/27 00:41:46;;;;;;;7.00;1.40;;;;;;;;;;5034369;28;20537;-90
2021/12/27 00:44:11;;;;;;;2.30;1.50;;;;;;;;;;5032443;28;20256;-90
2021/12/27 00:46:37;;;;;;;4.93;2.17;;;;;;;;;;5033223;28;20029;-90
2021/12/27 00:49:02;;;;;;;2.03;1.50;;;;;;;;;;5035295;28;20025;-90
2021/12/27 00:51:27;;;;;;;1.63;1.38;;;;;;;;;;5033837;28;20013;-90
2021/12/27 00:53:52;;;;;;;2.83;1.45;;;;;;;;;;5034186;28;20384;-90
2021/12/27 00:56:17;;;;;;;4.70;1.52;;;;;;;;;;5034515;28;20024;-90
2021/12/27 00:58:43;;;;;;;1.95;1.58;;;;;;;;;;5035228;28;20105;-90
2021/12/27 01:01:08;;;;;;;2.63;1.40;;;;;;;;;;5035530;28;20064;-90
2021/12/27 01:03:33;;;;;;;3.38;2.05;;;;;;;;;;5050765;28;20044;-90
2021/12/27 01:05:58;;;;;;;2.17;1.40;;;;;;;;;;5035853;28;20048;-90
2021/12/27 01:08:24;;;;;;;3.67;1.58;;;;;;;;;;5034658;28;20256;-90
2021/12/27 01:13:59;;;;;;;1.67;1.42;;;;;;;;;;4981263;28;20446;-90
2021/12/27 01:16:25;;;;;;;4.60;1.83;;;;;;;;;;5034580;28;20070;-90
2021/12/27 01:18:50;;;;;;;2.25;1.50;;;;;;;;;;5034237;28;20021;-90
2021/12/27 01:21:17;;;;;;;3.95;1.50;;;;;;;;;;5035005;28;20032;-90
2021/12/27 01:23:43;;;;;;;3.88;1.70;;;;;;;;;;5039255;28;20037;-90
2021/12/27 01:26:08;;;;;;;3.22;1.83;;;;;;;;;;5034717;28;20064;-90
2021/12/27 01:28:34;;;;;;;4.97;2.28;;;;;;;;;;5035091;28;20013;-90
2021/12/27 01:30:59;;;;;;;4.68;2.38;;;;;;;;;;5034358;28;20466;-90
2021/12/27 01:33:25;;;;;;;2.85;2.03;;;;;;;;;;5034650;28;20017;-90
2021/12/27 01:35:51;;;;;;;4.57;1.88;;;;;;;;;;5034331;28;20477;-90
2021/12/27 01:38:16;;;;;;;3.00;1.42;;;;;;;;;;5038584;28;20120;-90
2021/12/27 01:40:43;;;;;;;4.53;1.92;;;;;;;;;;5030947;28;20108;-90
2021/12/27 01:43:14;;;;;;;4.57;1.83;;;;;;;;;;5031343;28;20029;-90
2021/12/27 01:45:50;;;;;;;3.58;1.92;;;;;;;;;;5031845;28;20017;-90
2021/12/27 01:48:20;;;;;;;4.53;2.20;;;;;;;;;;5031687;28;20026;-90
2021/12/27 01:50:45;;;;;;;2.17;1.67;;;;;;;;;;5031008;28;20408;-90
2021/12/27 01:53:11;;;;;;;2.92;1.80;;;;;;;;;;5031013;28;20116;-90
2021/12/27 01:55:36;;;;;;;6.05;3.33;;;;;;;;;;5032439;28;20429;-90
2021/12/27 01:58:02;;;;;;;3.95;2.17;;;;;;;;;;5031179;28;20380;-90
2021/12/27 02:00:28;;;;;;;4.53;2.33;;;;;;;;;;5036563;28;20027;-90
2021/12/27 02:02:53;;;;;;;3.97;2.15;;;;;;;;;;5031983;28;20117;-90
2021/12/27 02:05:19;;;;;;;4.45;2.38;;;;;;;;;;5029622;28;20056;-90
2021/12/27 02:07:44;;;;;;;4.03;2.15;;;;;;;;;;5030158;28;20108;-91
2021/12/27 02:10:10;;;;;;;3.67;2.47;;;;;;;;;;5030143;28;20037;-90
2021/12/27 02:12:35;;;;;;;6.03;3.40;;;;;;;;;;5043395;28;20033;-90
2021/12/27 02:15:07;;;;;;;5.22;2.20;;;;;;;;;;5035755;28;20134;-91
2021/12/27 02:17:33;;;;;;;6.15;2.47;;;;;;;;;;5031562;28;20056;-91
2021/12/27 02:19:58;;;;;;;7.85;2.28;;;;;;;;;;5030392;28;20021;-90
2021/12/27 02:22:23;;;;;;;6.00;2.60;;;;;;;;;;5032479;28;20108;-90
2021/12/27 02:24:48;;;;;;;3.47;2.55;;;;;;;;;;5032589;28;20272;-90
2021/12/27 02:27:15;;;;;;;4.97;2.47;;;;;;;;;;5047645;28;20018;-90
2021/12/27 02:29:40;;;;;;;6.38;2.38;;;;;;;;;;5032037;28;20069;-90
2021/12/27 02:32:06;;;;;;;6.63;2.65;;;;;;;;;;5031995;28;20053;-89
2021/12/27 02:34:31;;;;;;;9.48;2.33;;;;;;;;;;5032330;28;20029;-90
2021/12/27 02:36:56;;;;;;;6.10;2.75;;;;;;;;;;5031719;28;20040;-90
2021/12/27 02:39:22;;;;;;;4.90;2.55;;;;;;;;;;5031809;28;20102;-90
2021/12/27 02:41:47;;;;;;;6.20;2.88;;;;;;;;;;5031014;28;20457;-90
2021/12/27 02:44:12;;;;;;;5.97;2.78;;;;;;;;;;5034945;28;20049;-90
2021/12/27 02:46:37;;;;;;;2.28;1.92;;;;;;;;;;5031880;28;20025;-90
2021/12/27 02:49:04;;;;;;;7.65;2.42;;;;;;;;;;5033166;28;20021;-90
2021/12/27 02:51:30;;;;;;;3.45;2.17;;;;;;;;;;5031182;28;20394;-90
2021/12/27 02:53:56;;;;;;;6.45;2.80;;;;;;;;;;5031023;28;20044;-90
2021/12/27 02:56:21;;;;;;;8.93;2.50;;;;;;;;;;5029953;28;20022;-90
2021/12/27 02:58:47;;;;;;;4.05;2.40;;;;;;;;;;5031229;28;20023;-90
2021/12/27 03:01:13;;;;;;;11.32;2.88;;;;;;;;;;5036285;28;20489;-90
2021/12/27 03:03:39;;;;;;;4.93;3.13;;;;;;;;;;5034018;28;20025;-90
2021/12/27 03:06:05;;;;;;;5.40;2.80;;;;;;;;;;5035731;28;20042;-90
2021/12/27 03:08:30;;;;;;;6.32;3.50;;;;;;;;;;5035287;28;20461;-90
2021/12/27 03:10:57;;;;;;;7.25;2.97;;;;;;;;;;5034493;28;20124;-90
2021/12/27 03:13:26;;;;;;;7.10;2.78;;;;;;;;;;5036084;28;20144;-90
2021/12/27 03:15:56;;;;;;;10.13;3.53;;;;;;;;;;5034616;28;20508;-90
2021/12/27 03:18:21;;;;;;;6.43;3.75;;;;;;;;;;5040956;28;20025;-90
2021/12/27 03:20:47;;;;;;;4.63;3.08;;;;;;;;;;5033704;28;20022;-90
2021/12/27 03:23:12;;;;;;;8.02;3.70;;;;;;;;;;5033817;28;20025;-91
2021/12/27 03:25:39;;;;;;;6.05;3.35;;;;;;;;;;5032624;28;20120;-90
2021/12/27 03:28:05;;;;;;;7.68;3.17;;;;;;;;;;5033110;28;20025;-90
2021/12/27 03:30:30;;;;;;;6.25;3.08;;;;;;;;;;5034210;28;20039;-90
2021/12/27 03:32:55;;;;;;;7.22;4.05;;;;;;;;;;5032449;28;20116;-90
2021/12/27 03:35:34;;;;;;;5.38;3.33;;;;;;;;;;5034477;28;20027;-90
2021/12/27 03:38:00;;;;;;;8.35;4.30;;;;;;;;;;5033497;28;20068;-90
2021/12/27 03:40:26;;;;;;;7.03;3.40;;;;;;;;;;5035363;28;20465;-90
2021/12/27 03:42:52;;;;;;;7.93;3.30;;;;;;;;;;5036506;28;20072;-90
2021/12/27 03:45:22;;;;;;;6.85;3.55;;;;;;;;;;5035327;28;20500;-89
2021/12/27 03:47:47;;;;;;;7.93;4.15;;;;;;;;;;5036292;28;20112;-89
2021/12/27 03:50:13;;;;;;;8.85;3.95;;;;;;;;;;5035253;28;20041;-90
2021/12/27 03:52:38;;;;;;;8.43;3.92;;;;;;;;;;5040426;28;20014;-89
2021/12/27 03:55:06;;;;;;;7.88;4.55;;;;;;;;;;5041000;28;20664;-90
2021/12/27 03:57:34;;;;;;;8.13;4.22;;;;;;;;;;5035353;28;20155;-89
2021/12/27 04:02:43;;;;;;;9.55;4.40;;;;;;;;;;5036661;28;20024;-89
2021/12/27 04:05:11;;;;;;;10.20;4.55;;;;;;;;;;5034434;28;20054;-89
2021/12/27 04:07:37;;;;;;;9.93;4.07;;;;;;;;;;5035829;28;20013;-90
2021/12/27 04:10:03;;;;;;;9.55;4.50;;;;;;;;;;5034617;28;20028;-89
2021/12/27 04:12:28;;;;;;;9.15;5.30;;;;;;;;;;5035195;28;20429;-89
2021/12/27 04:14:55;;;;;;;11.18;4.55;;;;;;;;;;5036097;28;20025;-90
2021/12/27 04:17:20;;;;;;;10.15;4.47;;;;;;;;;;5034513;28;20023;-90
2021/12/27 04:19:45;;;;;;;8.98;4.80;;;;;;;;;;5034408;28;20030;-90
2021/12/27 04:22:11;;;;;;;11.60;4.68;;;;;;;;;;5035756;28;20036;-90
2021/12/27 04:24:37;;;;;;;7.13;4.15;;;;;;;;;;5037479;28;20354;-90
2021/12/27 04:27:02;;;;;;;10.70;5.07;;;;;;;;;;5045632;28;20144;-89
2021/12/27 04:29:27;;;;;;;8.85;4.82;;;;;;;;;;5035947;28;20120;-90
2021/12/27 04:31:52;;;;;;;9.40;5.15;;;;;;;;;;5034851;28;20067;-90
2021/12/27 04:34:17;;;;;;;11.93;5.23;;;;;;;;;;5034442;28;20022;-90
2021/12/27 04:36:43;;;;;;;11.73;4.73;;;;;;;;;;5034604;28;20755;-90
2021/12/27 04:39:08;;;;;;;9.73;5.33;;;;;;;;;;5034112;28;20268;-90
2021/12/27 04:41:34;;;;;;;14.55;6.18;;;;;;;;;;5035104;28;21168;-90
2021/12/27 04:43:59;;;;;;;12.20;5.45;;;;;;;;;;5034823;28;20018;-90
2021/12/27 04:46:24;;;;;;;14.38;5.80;;;;;;;;;;5034082;28;20355;-90
2021/12/27 04:48:52;;;;;;;11.85;4.75;;;;;;;;;;5038543;28;20063;-90
2021/12/27 04:51:17;;;;;;;14.00;5.30;;;;;;;;;;5038434;28;20084;-90
2021/12/27 04:53:42;;;;;;;10.75;5.78;;;;;;;;;;5034270;28;20025;-90
2021/12/27 04:56:07;;;;;;;13.20;6.35;;;;;;;;;;5036086;28;20382;-90
2021/12/27 04:58:32;;;;;;;11.18;5.70;;;;;;;;;;5036091;28;20389;-90
2021/12/27 05:00:58;;;;;;;10.68;5.55;;;;;;;;;;5035103;28;20466;-89
2021/12/27 05:03:23;;;;;;;13.15;6.75;;;;;;;;;;5038241;28;20491;-89
2021/12/27 05:05:48;;;;;;;17.17;6.38;;;;;;;;;;5052435;28;20037;-90
2021/12/27 05:08:14;;;;;;;10.93;5.68;;;;;;;;;;5034471;28;20085;-90
2021/12/27 05:10:39;;;;;;;13.95;5.93;;;;;;;;;;5034270;28;20036;-90
2021/12/27 05:13:04;;;;;;;14.55;7.07;;;;;;;;;;5035401;28;20021;-89
2021/12/27 05:15:29;;;;;;;14.63;6.28;;;;;;;;;;5035104;28;20776;-90
2021/12/27 05:17:55;;;;;;;12.70;6.35;;;;;;;;;;5033726;28;20076;-89
2021/12/27 05:20:20;;;;;;;12.57;6.25;;;;;;;;;;5035187;28;20061;-89
2021/12/27 05:22:45;;;;;;;14.40;6.55;;;;;;;;;;5033744;28;20028;-90
2021/12/27 05:25:12;;;;;;;12.90;6.00;;;;;;;;;;5033987;28;20041;-89
2021/12/27 05:27:40;;;;;;;9.95;5.63;;;;;;;;;;5034769;28;20017;-89
2021/12/27 05:30:06;;;;;;;12.48;6.63;;;;;;;;;;5038173;28;20083;-90
2021/12/27 05:32:32;;;;;;;17.13;7.03;;;;;;;;;;5030332;28;20112;-90
2021/12/27 05:34:57;;;;;;;15.02;7.30;;;;;;;;;;5030682;28;20021;-90
2021/12/27 05:37:23;;;;;;;15.10;6.15;;;;;;;;;;5033895;28;20013;-90
2021/12/27 05:39:48;;;;;;;16.95;7.25;;;;;;;;;;5033089;28;20774;-90
2021/12/27 05:42:14;;;;;;;13.27;6.97;;;;;;;;;;5032191;28;20017;-90
2021/12/27 05:44:39;;;;;;;12.55;6.60;;;;;;;;;;5030493;28;20049;-90
2021/12/27 05:47:04;;;;;;;12.18;5.78;;;;;;;;;;5030982;28;20017;-90
2021/12/27 05:49:29;;;;;;;14.90;6.85;;;;;;;;;;5032336;28;20036;-90
2021/12/27 05:51:55;;;;;;;16.30;6.75;;;;;;;;;;5032383;28;20022;-90
2021/12/27 05:54:21;;;;;;;15.38;6.70;;;;;;;;;;5031441;28;20168;-90
2021/12/27 05:56:47;;;;;;;16.08;6.53;;;;;;;;;;5030329;28;20112;-90
2021/12/27 05:59:12;;;;;;;14.25;6.53;;;;;;;;;;5031154;28;20080;-90
2021/12/27 06:01:38;;;;;;;14.00;6.43;;;;;;;;;;5030534;28;20017;-90
2021/12/27 06:04:03;;;;;;;14.05;6.70;;;;;;;;;;5033086;28;20109;-90
2021/12/27 06:06:28;;;;;;;14.65;6.95;;;;;;;;;;5039632;28;20084;-88
2021/12/27 06:08:54;;;;;;;16.02;6.63;;;;;;;;;;5033732;28;20026;-89
2021/12/27 06:11:20;;;;;;;15.27;7.53;;;;;;;;;;5031728;28;20064;-89
2021/12/27 06:13:45;;;;;;;16.55;6.90;;;;;;;;;;5033707;28;20045;-89
2021/12/27 06:16:11;;;;;;;17.58;6.93;;;;;;;;;;5046415;28;20026;-89
2021/12/27 06:18:36;;;;;;;18.77;7.20;;;;;;;;;;5043022;28;20059;-89
2021/12/27 06:21:02;;;;;;;14.90;7.10;;;;;;;;;;5031840;28;20022;-89
2021/12/27 06:23:27;;;;;;;19.88;7.30;;;;;;;;;;5030157;28;20025;-89
2021/12/27 06:25:52;;;;;;;17.48;7.20;;;;;;;;;;5031796;28;20065;-89
2021/12/27 06:28:17;;;;;;;17.33;7.72;;;;;;;;;;5029161;28;20014;-89
2021/12/27 06:30:43;;;;;;;18.42;8.18;;;;;;;;;;5032390;28;20401;-89
2021/12/27 06:33:10;;;;;;;14.20;6.82;;;;;;;;;;5030178;28;20017;-90
2021/12/27 06:35:35;;;;;;;13.18;7.35;;;;;;;;;;5032966;28;20701;-90
2021/12/27 06:38:01;;;;;;;18.40;7.55;;;;;;;;;;5033273;28;20120;-89
2021/12/27 06:40:26;;;;;;;13.18;7.22;;;;;;;;;;5034405;28;20386;-89
2021/12/27 06:42:52;;;;;;;19.70;8.30;;;;;;;;;;5030826;28;20021;-90
2021/12/27 06:45:19;;;;;;;17.45;7.10;;;;;;;;;;5030890;28;20053;-89
2021/12/27 06:47:53;;;;;;;14.13;6.82;;;;;;;;;;5019270;28;20377;-90
2021/12/27 06:50:27;;;;;;;16.58;7.03;;;;;;;;;;5035886;23;20143;-89
2021/12/27 06:52:52;;;;;;;15.23;7.80;;;;;;;;;;5052753;28;20056;-89
2021/12/27 06:55:22;;;;;;;18.25;7.43;;;;;;;;;;5035053;28;20083;-89
2021/12/27 06:57:52;;;;;;;15.18;6.80;;;;;;;;;;5051014;28;20099;-89
2021/12/27 07:00:18;;;;;;;17.13;7.63;;;;;;;;;;5035443;28;20020;-89
2021/12/27 07:02:44;;;;;;;13.18;7.22;;;;;;;;;;5034296;28;20020;-89
2021/12/27 07:05:17;;;;;;;22.25;7.95;;;;;;;;;;5034588;28;20031;-89
2021/12/27 07:07:45;;;;;;;19.58;6.90;;;;;;;;;;5033846;28;20028;-89
2021/12/27 07:10:16;;;;;;;17.38;7.57;;;;;;;;;;5034067;28;20143;-89
2021/12/27 07:12:41;;;;;;;16.95;7.15;;;;;;;;;;5034070;28;20021;-89
2021/12/27 07:15:07;;;;;;;17.30;7.13;;;;;;;;;;5035040;28;20687;-89
2021/12/27 07:17:34;;;;;;;14.60;7.63;;;;;;;;;;5034729;28;20029;-89
2021/12/27 07:19:59;;;;;;;13.75;6.85;;;;;;;;;;5034072;28;20452;-89
2021/12/27 07:22:26;;;;;;;16.13;8.10;;;;;;;;;;5035145;28;20074;-89
2021/12/27 07:24:52;;;;;;;17.33;7.93;;;;;;;;;;5036021;28;20049;-89
2021/12/27 07:27:18;;;;;;;16.02;8.30;;;;;;;;;;5055051;28;20021;-89
2021/12/27 07:29:47;;;;;;;16.33;7.38;;;;;;;;;;5035923;28;20175;-90
2021/12/27 07:32:13;;;;;;;18.40;7.85;;;;;;;;;;5048234;28;20524;-90
2021/12/27 07:34:41;;;;;;;17.98;7.72;;;;;;;;;;5036057;28;20059;-90
2021/12/27 07:37:11;;;;;;;13.98;7.88;;;;;;;;;;5032810;28;20021;-90
2021/12/27 07:39:42;;;;;;;21.90;7.75;;;;;;;;;;5055522;28;20104;-90
2021/12/27 07:42:08;;;;;;;18.33;8.63;;;;;;;;;;5030493;28;20047;-90
2021/12/27 07:44:38;;;;;;;20.23;8.65;;;;;;;;;;5033374;28;20052;-89
2021/12/27 07:47:07;;;;;;;21.17;8.10;;;;;;;;;;5033440;28;20020;-90
2021/12/27 07:55:05;;;;;;;19.45;8.77;;;;;;;;;;4513216;22;20254;-90
2021/12/27 07:57:36;;;;;;;19.45;8.80;;;;;;;;;;5057177;28;20488;-90
2021/12/27 08:00:09;;;;;;;25.48;9.10;;;;;;;;;;5140509;22;20012;-90
2021/12/27 08:02:40;;;;;;;23.02;11.48;;;;;;;;;;5092473;28;20115;-89
2021/12/27 08:05:13;;;;;;;17.83;10.30;;;;;;;;;;5074434;28;20061;-89
2021/12/27 08:07:45;;;;;;;18.75;9.90;;;;;;;;;;5073576;28;20347;-89
2021/12/27 08:10:12;;;;;;;24.73;9.98;;;;;;;;;;5073947;28;20460;-90
2021/12/27 08:12:39;;;;;;;22.52;10.18;;;;;;;;;;5078139;23;20071;-90
2021/12/27 08:15:07;;;;;;;24.27;11.35;;;;;;;;;;5077259;22;20042;-90
2021/12/27 08:17:35;;;;;;;24.55;10.07;;;;;;;;;;5014260;28;20044;-89
2021/12/27 08:20:02;;;;;;;21.13;11.18;;;;;;;;;;5006668;28;20049;-90
2021/12/27 08:22:31;;;;;;;27.23;11.20;;;;;;;;;;5019260;28;20024;-90
2021/12/27 08:24:57;;;;;;;23.52;10.80;;;;;;;;;;5067718;23;20613;-90
2021/12/27 08:27:24;;;;;;;26.38;12.35;;;;;;;;;;5074559;28;20056;-90
2021/12/27 08:29:50;;;;;;;26.92;12.65;;;;;;;;;;5064101;22;20064;-90
2021/12/27 08:32:17;;;;;;;26.70;11.90;;;;;;;;;;5056977;28;20017;-90
2021/12/27 08:34:43;;;;;;;26.60;11.85;;;;;;;;;;5057121;28;20019;-90
2021/12/27 08:37:08;;;;;;;27.10;11.57;;;;;;;;;;5056469;28;20095;-90
2021/12/27 08:39:34;;;;;;;28.88;12.60;;;;;;;;;;5057162;28;20021;-90
2021/12/27 08:42:01;;;;;;;23.63;11.75;;;;;;;;;;5056505;28;20108;-90
2021/12/27 08:44:26;;;;;;;22.13;10.85;;;;;;;;;;5055887;28;20021;-90
2021/12/27 08:46:54;;;;;;;25.65;11.90;;;;;;;;;;5055734;28;20021;-90
2021/12/27 08:49:24;;;;;;;27.58;12.48;;;;;;;;;;5054514;28;20451;-90
2021/12/27 08:51:59;;;;;;;27.13;13.68;;;;;;;;;;5128161;22;20786;-90
2021/12/27 08:54:32;;;;;;;26.77;11.65;;;;;;;;;;4138926;22;24108;-90
2021/12/27 08:56:57;;;;;;;23.05;12.75;;;;;;;;;;5093227;28;20040;-90
2021/12/27 08:59:23;;;;;;;24.75;13.48;;;;;;;;;;5090614;28;20073;-89
2021/12/27 09:01:48;;;;;;;28.13;13.80;;;;;;;;;;5092832;28;20023;-89
2021/12/27 09:04:13;;;;;;;27.55;12.63;;;;;;;;;;5076208;28;20363;-89
2021/12/27 09:06:38;;;;;;;25.27;11.95;;;;;;;;;;5076270;28;20016;-89
2021/12/27 09:09:04;;;;;;;28.15;12.80;;;;;;;;;;5078357;28;20418;-90
2021/12/27 09:11:30;;;;;;;27.35;14.20;;;;;;;;;;5092811;28;20439;-90
2021/12/27 09:13:55;;;;;;;25.42;13.52;;;;;;;;;;5075409;28;20019;-90
2021/12/27 09:16:20;;;;;;;28.10;12.48;;;;;;;;;;5074930;28;20020;-89
2021/12/27 09:18:45;;;;;;;27.38;13.43;;;;;;;;;;5091560;28;20028;-89
2021/12/27 09:21:11;;;;;;;29.83;15.07;;;;;;;;;;5072603;28;20032;-89
2021/12/27 09:23:36;;;;;;;34.53;15.63;;;;;;;;;;5073306;28;20016;-89
2021/12/27 09:26:02;;;;;;;34.03;15.27;;;;;;;;;;5075412;28;20024;-89
2021/12/27 09:28:29;;;;;;;30.70;14.25;;;;;;;;;;5088227;28;20744;-90
2021/12/27 09:30:56;;;;;;;34.22;15.85;;;;;;;;;;5075423;28;20032;-90
2021/12/27 09:33:22;;;;;;;31.50;15.80;;;;;;;;;;5074791;28;20840;-90
2021/12/27 09:35:47;;;;;;;32.20;14.82;;;;;;;;;;5093939;28;20016;-89
2021/12/27 09:38:13;;;;;;;29.25;14.70;;;;;;;;;;5073981;28;20027;-90
2021/12/27 09:40:40;;;;;;;31.20;15.02;;;;;;;;;;5072482;28;20024;-90
2021/12/27 09:43:06;;;;;;;32.17;14.27;;;;;;;;;;5074215;28;20091;-90
2021/12/27 09:45:32;;;;;;;33.33;16.52;;;;;;;;;;5091419;28;20031;-90
2021/12/27 09:47:57;;;;;;;34.95;16.30;;;;;;;;;;5075758;28;20016;-89
2021/12/27 09:50:29;;;;;;;40.72;18.45;;;;;;;;;;5075589;28;20391;-89
2021/12/27 09:52:57;;;;;;;29.15;15.23;;;;;;;;;;5060957;28;20112;-89
2021/12/27 09:55:27;;;;;;;34.47;16.83;;;;;;;;;;5078757;28;20048;-90
2021/12/27 09:57:52;;;;;;;30.25;15.20;;;;;;;;;;5074758;28;20106;-90
2021/12/27 10:00:18;;;;;;;35.08;15.93;;;;;;;;;;5075546;28;20058;-90
2021/12/27 10:02:45;;;;;;;29.42;16.42;;;;;;;;;;5074961;28;20020;-89
2021/12/27 10:05:10;;;;;;;30.30;16.08;;;;;;;;;;5075657;28;20371;-89
2021/12/27 10:07:41;;;;;;;34.13;16.48;;;;;;;;;;5073789;28;20032;-89
2021/12/27 10:10:07;;;;;;;34.08;18.30;;;;;;;;;;5071393;28;20732;-89
2021/12/27 10:12:32;;;;;;;38.58;17.58;;;;;;;;;;5072183;28;20024;-89
2021/12/27 10:14:58;;;;;;;34.08;17.58;;;;;;;;;;5072087;28;20111;-90
2021/12/27 10:17:24;;;;;;;41.67;18.45;;;;;;;;;;5072932;28;20034;-89
2021/12/27 10:19:50;;;;;;;33.15;17.20;;;;;;;;;;5071876;28;20471;-89
2021/12/27 10:22:16;;;;;;;33.72;17.38;;;;;;;;;;5090101;28;20020;-87
2021/12/27 10:24:41;;;;;;;39.33;19.33;;;;;;;;;;5090534;28;20021;-87
2021/12/27 10:27:07;;;;;;;35.50;17.92;;;;;;;;;;5090702;28;20012;-87
2021/12/27 10:29:34;;;;;;;35.78;18.25;;;;;;;;;;5073185;28;20115;-88
2021/12/27 10:32:04;;;;;;;39.30;18.63;;;;;;;;;;5073464;28;20500;-87
2021/12/27 10:34:40;;;;;;;35.97;17.58;;;;;;;;;;5091286;28;20373;-88
2021/12/27 10:37:09;;;;;;;40.42;19.65;;;;;;;;;;5089224;28;20105;-88
2021/12/27 10:39:42;;;;;;;38.05;20.77;;;;;;;;;;5093006;28;20083;-88
2021/12/27 10:42:08;;;;;;;33.75;19.08;;;;;;;;;;5093017;28;20068;-87
2021/12/27 10:44:34;;;;;;;40.35;20.88;;;;;;;;;;5092060;28;20027;-88
2021/12/27 10:46:59;;;;;;;37.97;21.25;;;;;;;;;;5092221;28;20119;-88
2021/12/27 10:49:43;;;;;;;34.97;20.27;;;;;;;;;;5074158;28;20103;-88
2021/12/27 10:52:08;;;;;;;35.72;19.08;;;;;;;;;;5072538;28;20451;-88
2021/12/27 10:54:35;;;;;;;42.15;22.88;;;;;;;;;;5082931;28;20034;-88
2021/12/27 10:57:02;;;;;;;40.83;21.55;;;;;;;;;;5093210;28;20027;-88
2021/12/27 10:59:29;;;;;;;46.10;23.13;;;;;;;;;;5093009;28;20039;-89
2021/12/27 11:01:55;;;;;;;41.97;22.25;;;;;;;;;;5090247;28;20044;-89
2021/12/27 11:04:20;;;;;;;41.42;21.00;;;;;;;;;;5082437;28;20043;-88
2021/12/27 11:06:46;;;;;;;44.15;21.85;;;;;;;;;;5094519;28;20035;-88
2021/12/27 11:09:14;;;;;;;39.85;21.95;;;;;;;;;;5076153;28;20052;-88
2021/12/27 11:11:39;;;;;;;40.75;21.20;;;;;;;;;;5072042;28;20046;-88
2021/12/27 11:14:05;;;;;;;38.50;21.73;;;;;;;;;;5072095;28;20458;-88
2021/12/27 11:16:31;;;;;;;45.53;23.38;;;;;;;;;;5090911;28;20024;-88
2021/12/27 11:18:56;;;;;;;37.90;21.95;;;;;;;;;;5090857;28;20020;-88
2021/12/27 11:21:23;;;;;;;39.90;21.85;;;;;;;;;;5093187;28;20474;-88
2021/12/27 11:23:52;;;;;;;43.88;24.48;;;;;;;;;;5077623;28;20057;-88
2021/12/27 11:26:25;;;;;;;55.25;26.08;;;;;;;;;;5084855;28;20038;-88
2021/12/27 11:28:50;;;;;;;47.22;26.02;;;;;;;;;;5097151;28;20027;-88
2021/12/27 11:31:19;;;;;;;48.47;25.17;;;;;;;;;;5098306;28;20150;-88
2021/12/27 11:33:59;;;;;;;44.28;23.80;;;;;;;;;;5095850;28;20069;-88
2021/12/27 11:36:33;;;;;;;42.83;22.55;;;;;;;;;;5113696;28;20020;-88
2021/12/27 11:38:59;;;;;;;41.90;23.05;;;;;;;;;;5077623;28;20630;-88
2021/12/27 11:41:25;;;;;;;47.20;25.75;;;;;;;;;;5093620;28;20468;-88
2021/12/27 11:43:51;;;;;;;45.57;25.23;;;;;;;;;;5085642;28;20020;-89
2021/12/27 11:46:17;;;;;;;55.55;28.70;;;;;;;;;;5081815;28;20262;-90
2021/12/27 11:48:50;;;;;;;47.65;25.75;;;;;;;;;;5085911;28;20077;-87
2021/12/27 11:51:33;;;;;;;48.33;25.05;;;;;;;;;;5086389;28;20043;-88
2021/12/27 11:53:59;;;;;;;44.90;24.95;;;;;;;;;;5074524;28;20028;-88
2021/12/27 11:56:44;;;;;;;48.20;24.65;;;;;;;;;;5075263;28;20048;-89
2021/12/27 11:59:24;;;;;;;44.67;24.17;;;;;;;;;;5075054;28;20080;-89
2021/12/27 12:01:51;;;;;;;43.85;24.45;;;;;;;;;;5073521;28;20107;-90
2021/12/27 12:04:35;;;;;;;48.35;25.35;;;;;;;;;;5076128;28;20103;-90
2021/12/27 12:07:01;;;;;;;48.53;25.10;;;;;;;;;;5085287;28;20024;-89
2021/12/27 12:09:26;;;;;;;53.25;26.33;;;;;;;;;;5075468;28;20761;-90
2021/12/27 12:12:03;;;;;;;49.00;27.48;;;;;;;;;;5076647;28;20463;-89
2021/12/27 12:14:33;;;;;;;42.80;24.55;;;;;;;;;;5085764;28;20463;-89
2021/12/27 12:17:03;;;;;;;48.90;25.35;;;;;;;;;;5095319;28;20019;-90
2021/12/27 12:19:41;;;;;;;52.72;27.63;;;;;;;;;;5090864;28;20019;-90
2021/12/27 12:22:06;;;;;;;47.20;26.75;;;;;;;;;;5095123;28;20713;-90
2021/12/27 12:24:33;;;;;;;48.22;26.33;;;;;;;;;;5094964;28;20080;-90
2021/12/27 12:27:04;;;;;;;50.30;27.17;;;;;;;;;;5097262;28;20026;-90
2021/12/27 12:29:29;;;;;;;51.35;27.40;;;;;;;;;;5090742;28;20039;-89
2021/12/27 12:31:56;;;;;;;44.95;25.75;;;;;;;;;;5074800;28;20035;-89
2021/12/27 12:34:22;;;;;;;55.20;29.50;;;;;;;;;;5075943;28;20474;-89
2021/12/27 12:36:52;;;;;;;49.97;27.02;;;;;;;;;;5076759;28;20024;-89
2021/12/27 12:39:19;;;;;;;50.25;28.80;;;;;;;;;;5076730;28;20016;-89
2021/12/27 12:41:45;;;;;;;51.35;28.52;;;;;;;;;;5075212;28;20114;-88
2021/12/27 12:44:10;;;;;;;54.33;30.85;;;;;;;;;;5074379;28;20523;-88
2021/12/27 12:46:41;;;;;;;52.25;29.40;;;;;;;;;;5087075;28;20023;-89
2021/12/27 12:49:06;;;;;;;55.33;28.05;;;;;;;;;;5101621;28;20024;-89
2021/12/27 12:51:33;;;;;;;50.92;26.55;;;;;;;;;;5090837;28;20055;-89
2021/12/27 12:53:58;;;;;;;46.63;25.77;;;;;;;;;;5078782;28;20712;-89
2021/12/27 12:56:28;;;;;;;52.25;28.90;;;;;;;;;;5094195;28;20105;-89
2021/12/27 12:58:53;;;;;;;52.00;26.73;;;;;;;;;;5107618;28;20351;-88
2021/12/27 13:01:19;;;;;;;45.95;25.50;;;;;;;;;;5113866;28;20024;-88
2021/12/27 13:03:44;;;;;;;51.60;28.50;;;;;;;;;;5090341;28;20016;-88
2021/12/27 13:06:09;;;;;;;48.95;27.98;;;;;;;;;;5092225;28;20523;-88
2021/12/27 13:08:35;;;;;;;51.25;27.90;;;;;;;;;;5084230;28;20019;-88
2021/12/27 13:11:03;;;;;;;51.67;27.80;;;;;;;;;;5078235;28;20031;-88
2021/12/27 13:13:30;;;;;;;52.80;28.98;;;;;;;;;;5089551;28;20688;-88
2021/12/27 13:15:59;;;;;;;55.38;31.25;;;;;;;;;;5097709;28;20008;-89
2021/12/27 13:18:30;;;;;;;63.53;33.58;;;;;;;;;;5113161;28;20020;-89
2021/12/27 13:20:56;;;;;;;67.38;35.70;;;;;;;;;;5112592;28;20019;-89
2021/12/27 13:23:22;;;;;;;55.40;31.85;;;;;;;;;;5113981;28;20014;-89
2021/12/27 13:25:48;;;;;;;55.58;30.98;;;;;;;;;;5117186;28;20028;-88
2021/12/27 13:28:15;;;;;;;51.55;30.77;;;;;;;;;;5116969;28;20023;-88
2021/12/27 13:30:44;;;;;;;55.50;28.98;;;;;;;;;;5136931;28;20032;-88
2021/12/27 13:33:10;;;;;;;54.33;30.00;;;;;;;;;;5115926;28;20095;-88
2021/12/27 13:53:50;;;;;;;52.85;31.23;;;;;;;;;;5119028;22;20465;-89
2021/12/27 13:56:16;;;;;;;58.30;32.72;;;;;;;;;;5149849;23;20070;-88
2021/12/27 13:58:45;;;;;;;55.22;30.45;;;;;;;;;;5093908;28;20103;-88
2021/12/27 14:01:14;;;;;;;60.50;34.78;;;;;;;;;;5091951;28;20023;-88
2021/12/27 14:03:40;;;;;;;60.17;33.40;;;;;;;;;;5092482;28;20758;-88
2021/12/27 14:06:05;;;;;;;56.80;32.60;;;;;;;;;;5094917;28;20023;-88
2021/12/27 14:08:31;;;;;;;61.33;34.65;;;;;;;;;;5094991;28;20024;-89
2021/12/27 14:11:01;;;;;;;67.60;34.00;;;;;;;;;;5092333;28;20028;-89
2021/12/27 14:13:45;;;;;;;63.13;35.03;;;;;;;;;;5093019;28;20027;-89
2021/12/27 14:16:18;;;;;;;59.28;33.83;;;;;;;;;;5091931;28;20474;-89
2021/12/27 14:19:03;;;;;;;61.17;34.60;;;;;;;;;;5092641;28;20016;-89
2021/12/27 14:21:28;;;;;;;61.92;35.08;;;;;;;;;;5092989;28;20085;-89
2021/12/27 14:24:04;;;;;;;66.93;37.90;;;;;;;;;;5094425;28;20012;-89
2021/12/27 14:26:30;;;;;;;67.38;37.00;;;;;;;;;;5092910;28;20059;-89
2021/12/27 14:29:17;;;;;;;65.93;38.33;;;;;;;;;;5094520;28;20448;-89
2021/12/27 14:31:49;;;;;;;77.35;39.80;;;;;;;;;;5092602;28;20832;-89
2021/12/27 14:34:34;;;;;;;69.05;39.10;;;;;;;;;;5090862;28;20382;-89
2021/12/27 14:37:00;;;;;;;65.38;37.67;;;;;;;;;;5090830;28;20028;-89
2021/12/27 14:39:25;;;;;;;68.35;37.15;;;;;;;;;;5091164;28;20081;-89
2021/12/27 14:41:50;;;;;;;75.95;41.25;;;;;;;;;;5091937;28;20016;-88
2021/12/27 14:44:16;;;;;;;72.05;41.72;;;;;;;;;;5098421;28;20033;-88
2021/12/27 14:46:42;;;;;;;78.50;40.85;;;;;;;;;;5094843;28;20030;-89
2021/12/27 14:49:10;;;;;;;86.55;46.70;;;;;;;;;;5092777;28;20020;-89
2021/12/27 14:51:38;;;;;;;74.10;38.63;;;;;;;;;;5092263;28;20032;-88
2021/12/27 14:54:04;;;;;;;81.40;44.45;;;;;;;;;;5092410;28;20020;-89
2021/12/27 14:56:31;;;;;;;74.68;42.00;;;;;;;;;;5094917;28;20043;-88